createdAt,value
2023-04-16T00:01:01.297Z,77.30
2023-04-16T00:03:27.771Z,79.53
2023-04-16T00:05:55.909Z,71.32
2023-04-16T00:08:24.632Z,89.15
2023-04-16T00:10:52.618Z,81.40
2023-04-16T00:13:19.140Z,84.78
2023-04-16T00:15:45.707Z,80.53
2023-04-16T00:18:12.092Z,99.88
2023-04-16T00:20:38.502Z,86.47
2023-04-16T00:23:04.887Z,77.85
2023-04-16T00:25:31.270Z,95.10
2023-04-16T00:27:57.646Z,87.28
2023-04-16T00:30:24.064Z,88.55
2023-04-16T00:32:50.537Z,96.45
2023-04-16T00:35:16.978Z,83.63
2023-04-16T00:37:43.380Z,96.78
2023-04-16T00:40:10.101Z,82.80
2023-04-16T00:42:38.002Z,88.05
2023-04-16T00:45:05.540Z,93.75
2023-04-16T00:47:32.004Z,92.00
2023-04-16T00:49:58.427Z,95.22
2023-04-16T00:52:25.967Z,100.80
2023-04-16T00:54:52.647Z,77.82
2023-04-16T00:57:20.998Z,80.00
2023-04-16T00:59:47.520Z,87.03
2023-04-16T01:02:14.309Z,91.40
2023-04-16T01:04:40.791Z,88.60
2023-04-16T01:07:07.270Z,85.03
2023-04-16T01:09:33.654Z,85.15
2023-04-16T01:12:00.106Z,79.55
2023-04-16T01:14:26.524Z,80.75
2023-04-16T01:16:52.958Z,89.47
2023-04-16T01:19:19.338Z,88.90
2023-04-16T01:21:45.818Z,87.88
2023-04-16T01:24:12.205Z,87.80
2023-04-16T01:26:38.588Z,89.90
2023-04-16T01:29:05.087Z,94.10
2023-04-16T01:31:31.920Z,94.65
2023-04-16T01:33:58.328Z,99.43
2023-04-16T01:36:24.700Z,93.03
2023-04-16T01:38:51.069Z,82.90
2023-04-16T01:41:17.447Z,93.63
2023-04-16T01:43:43.846Z,95.15
2023-04-16T01:46:15.424Z,88.57
2023-04-16T01:48:41.869Z,89.85
2023-04-16T01:51:08.271Z,83.25
2023-04-16T01:53:36.950Z,78.55
2023-04-16T01:56:03.829Z,91.90
2023-04-16T01:58:32.537Z,93.13
2023-04-16T02:00:59.107Z,85.55
2023-04-16T02:03:25.783Z,86.78
2023-04-16T02:05:52.258Z,83.22
2023-04-16T02:08:18.636Z,94.07
2023-04-16T02:10:49.739Z,95.47
2023-04-16T02:13:16.633Z,106.50
2023-04-16T02:15:47.325Z,100.90
2023-04-16T02:18:13.925Z,98.38
2023-04-16T02:20:44.625Z,104.28
2023-04-16T02:23:11.827Z,94.15
2023-04-16T02:25:42.223Z,112.45
2023-04-16T02:28:09.828Z,109.63
2023-04-16T02:30:36.995Z,107.57
2023-04-16T02:33:05.455Z,101.80
2023-04-16T02:35:34.746Z,107.75
2023-04-16T02:38:01.568Z,120.38
2023-04-16T02:40:29.065Z,119.05
2023-04-16T02:42:55.712Z,118.18
2023-04-16T02:45:22.538Z,108.50
2023-04-16T02:47:49.296Z,119.90
2023-04-16T02:50:16.199Z,113.43
2023-04-16T02:52:42.701Z,118.07
2023-04-16T02:55:09.919Z,115.53
2023-04-16T02:57:36.488Z,112.05
2023-04-16T03:00:04.928Z,114.13
2023-04-16T03:02:31.413Z,105.80
2023-04-16T03:04:57.871Z,100.57
2023-04-16T03:07:24.527Z,107.45
2023-04-16T03:09:50.895Z,103.68
2023-04-16T03:12:17.264Z,95.90
2023-04-16T03:14:43.623Z,89.65
2023-04-16T03:17:09.999Z,88.63
2023-04-16T03:19:36.412Z,80.95
2023-04-16T03:22:02.806Z,93.78
2023-04-16T03:24:29.535Z,88.40
2023-04-16T03:26:57.906Z,93.75
2023-04-16T03:29:24.510Z,89.68
2023-04-16T03:31:50.886Z,86.70
2023-04-16T03:34:17.279Z,95.60
2023-04-16T03:36:43.665Z,77.57
2023-04-16T03:39:10.271Z,92.68
2023-04-16T03:41:36.805Z,96.85
2023-04-16T03:44:03.217Z,86.60
2023-04-16T03:46:29.646Z,103.63
2023-04-16T03:48:56.260Z,93.60
2023-04-16T03:51:22.644Z,107.18
2023-04-16T03:53:49.019Z,102.70
2023-04-16T03:56:15.420Z,110.18
2023-04-16T03:58:41.803Z,106.32
2023-04-16T04:01:08.183Z,108.28
2023-04-16T04:03:34.816Z,101.25
2023-04-16T04:06:01.357Z,94.38
2023-04-16T04:08:27.721Z,96.38
2023-04-16T04:10:54.107Z,95.40
2023-04-16T04:13:20.637Z,93.88
2023-04-16T04:15:47.012Z,87.95
2023-04-16T04:18:13.379Z,99.65
2023-04-16T04:20:41.076Z,97.55
2023-04-16T04:23:07.516Z,100.15
2023-04-16T04:25:33.920Z,96.88
2023-04-16T04:28:00.293Z,95.65
2023-04-16T04:30:26.726Z,99.13
2023-04-16T04:32:53.175Z,100.60
2023-04-16T04:35:19.654Z,96.32
2023-04-16T04:37:46.071Z,97.97
2023-04-16T04:40:12.529Z,93.00
2023-04-16T04:42:38.947Z,91.72
2023-04-16T04:45:05.852Z,99.20
2023-04-16T04:47:32.292Z,92.75
2023-04-16T04:49:58.752Z,92.50
2023-04-16T04:52:25.312Z,88.25
2023-04-16T04:54:52.710Z,96.28
2023-04-16T04:57:19.116Z,95.10
2023-04-16T04:59:45.621Z,91.40
2023-04-16T05:02:12.063Z,95.05
2023-04-16T05:04:38.504Z,82.93
2023-04-16T05:07:04.951Z,86.40
2023-04-16T05:09:31.666Z,92.10
2023-04-16T05:11:58.079Z,85.43
2023-04-16T05:14:24.490Z,91.38
2023-04-16T05:16:51.291Z,83.13
2023-04-16T05:19:17.842Z,76.88
2023-04-16T05:21:44.218Z,82.72
2023-04-16T05:24:10.827Z,80.43
2023-04-16T05:26:38.090Z,73.72
2023-04-16T05:29:04.543Z,84.43
2023-04-16T05:31:30.917Z,85.15
2023-04-16T05:33:57.301Z,74.85
2023-04-16T05:36:23.678Z,77.75
2023-04-16T05:38:50.100Z,67.65
2023-04-16T05:41:16.484Z,76.30
2023-04-16T05:43:42.864Z,73.18
2023-04-16T05:46:09.251Z,76.40
2023-04-16T05:48:35.665Z,70.95
2023-04-16T05:51:02.697Z,74.25
2023-04-16T05:53:29.136Z,69.00
2023-04-16T05:55:55.650Z,85.45
2023-04-16T05:58:22.094Z,74.40
2023-04-16T06:00:48.566Z,63.38
2023-04-16T06:03:15.135Z,75.47
2023-04-16T06:05:41.720Z,69.75
2023-04-16T06:08:08.200Z,76.20
2023-04-16T06:10:34.670Z,69.55
2023-04-16T06:13:01.069Z,62.25
2023-04-16T06:15:27.451Z,68.78
2023-04-16T06:17:54.466Z,59.13
2023-04-16T06:20:20.893Z,63.80
2023-04-16T06:22:47.309Z,64.88
2023-04-16T06:25:14.187Z,57.17
2023-04-16T06:27:41.212Z,62.63
2023-04-16T06:30:12.491Z,60.67
2023-04-16T06:32:39.090Z,60.10
2023-04-16T06:35:06.170Z,59.33
2023-04-16T06:37:32.583Z,63.17
2023-04-16T06:39:58.952Z,68.70
2023-04-16T06:42:25.404Z,58.90
2023-04-16T06:44:51.778Z,59.90
2023-04-16T06:47:18.194Z,55.13
2023-04-16T06:49:44.660Z,54.85
2023-04-16T06:52:11.667Z,54.72
2023-04-16T06:54:38.187Z,58.47
2023-04-16T06:57:04.572Z,60.78
2023-04-16T06:59:31.542Z,59.70
2023-04-16T07:01:58.075Z,54.55
2023-04-16T07:04:24.657Z,55.92
2023-04-16T07:06:51.227Z,61.78
2023-04-16T07:09:17.969Z,64.68
2023-04-16T07:11:44.595Z,59.40
2023-04-16T07:14:11.045Z,62.85
2023-04-16T07:16:37.822Z,63.03
2023-04-16T07:19:04.427Z,58.45
2023-04-16T07:21:31.677Z,62.90
2023-04-16T07:23:58.057Z,58.33
2023-04-16T07:26:24.457Z,56.22
2023-04-16T07:28:50.871Z,54.83
2023-04-16T07:31:17.478Z,53.35
2023-04-16T07:33:43.966Z,56.88
2023-04-16T07:36:10.944Z,56.83
2023-04-16T07:38:37.351Z,59.95
2023-04-16T07:41:03.770Z,54.65
2023-04-16T07:43:30.362Z,59.40
2023-04-16T07:45:56.916Z,54.95
2023-04-16T07:48:23.416Z,56.72
2023-04-16T07:50:50.319Z,59.15
2023-04-16T07:53:16.823Z,54.00
2023-04-16T07:55:43.565Z,61.50
2023-04-16T07:58:10.255Z,53.13
2023-04-16T08:00:36.907Z,54.70
2023-04-16T08:03:03.937Z,59.15
2023-04-16T08:05:30.435Z,58.55
2023-04-16T08:07:56.864Z,56.85
2023-04-16T08:10:23.299Z,50.47
2023-04-16T08:12:49.735Z,52.78
2023-04-16T08:15:16.411Z,55.95
2023-04-16T08:17:42.898Z,58.33
2023-04-16T08:20:12.178Z,56.60
2023-04-16T08:22:40.882Z,58.10
2023-04-16T08:25:07.906Z,54.33
2023-04-16T08:27:34.294Z,60.05
2023-04-16T08:30:00.760Z,53.58
2023-04-16T08:32:27.221Z,60.33
2023-04-16T08:34:53.659Z,56.28
2023-04-16T08:37:20.110Z,53.50
2023-04-16T08:39:46.485Z,60.08
2023-04-16T08:42:40.593Z,53.47
2023-04-16T08:45:09.067Z,58.38
2023-04-16T08:47:37.107Z,54.40
2023-04-16T08:50:04.994Z,53.90
2023-04-16T08:52:31.954Z,51.90
2023-04-16T08:55:06.699Z,59.22
2023-04-16T08:57:53.725Z,51.58
2023-04-16T09:00:21.167Z,56.50
2023-04-16T09:02:47.953Z,51.42
2023-04-16T09:05:18.956Z,57.10
2023-04-16T09:07:46.431Z,56.08
2023-04-16T09:10:14.698Z,51.50
2023-04-16T09:12:44.563Z,52.90
2023-04-16T09:15:12.300Z,50.67
2023-04-16T09:17:39.509Z,51.15
2023-04-16T09:20:08.819Z,45.72
2023-04-16T09:22:36.266Z,49.85
2023-04-16T09:25:03.229Z,48.15
2023-04-16T09:27:30.811Z,47.30
2023-04-16T09:29:57.429Z,44.35
2023-04-16T09:32:28.222Z,48.10
2023-04-16T09:34:59.004Z,51.28
2023-04-16T09:37:26.611Z,51.50
2023-04-16T09:39:55.791Z,52.60
2023-04-16T09:42:33.199Z,48.17
2023-04-16T09:45:01.382Z,51.17
2023-04-16T09:47:43.968Z,48.55
2023-04-16T09:50:17.795Z,49.58
2023-04-16T09:52:50.478Z,43.97
2023-04-16T09:55:17.018Z,45.00
2023-04-16T09:57:43.395Z,45.95
2023-04-16T10:00:10.685Z,46.15
2023-04-16T10:02:41.481Z,43.78
2023-04-16T10:05:08.552Z,42.65
2023-04-16T10:07:36.138Z,42.60
2023-04-16T10:10:03.876Z,42.20
2023-04-16T10:12:32.527Z,40.70
2023-04-16T10:14:58.975Z,44.72
2023-04-16T10:17:26.596Z,41.00
2023-04-16T10:19:54.348Z,38.65
2023-04-16T10:22:20.942Z,41.35
2023-04-16T10:24:47.894Z,44.10
2023-04-16T10:27:14.345Z,42.20
2023-04-16T10:29:40.774Z,41.20
2023-04-16T10:32:07.700Z,40.47
2023-04-16T10:34:35.124Z,35.78
2023-04-16T10:37:01.606Z,38.50
2023-04-16T10:39:29.379Z,35.75
2023-04-16T10:42:08.011Z,35.38
2023-04-16T10:44:34.402Z,36.75
2023-04-16T10:47:00.901Z,41.47
2023-04-16T10:49:27.369Z,36.00
2023-04-16T10:52:03.580Z,30.80
2023-04-16T10:54:31.059Z,34.00
2023-04-16T10:56:59.218Z,33.88
2023-04-16T10:59:31.009Z,31.48
2023-04-16T11:01:59.682Z,35.85
2023-04-16T11:04:28.107Z,34.17
2023-04-16T11:07:13.936Z,33.15
2023-04-16T11:09:59.826Z,32.75
2023-04-16T11:12:33.576Z,30.02
2023-04-16T11:15:02.756Z,38.42
2023-04-16T11:17:51.495Z,34.30
2023-04-16T11:20:22.977Z,32.80
2023-04-16T11:22:50.568Z,29.35
2023-04-16T11:25:24.684Z,32.25
2023-04-16T11:27:51.964Z,30.88
2023-04-16T11:30:19.556Z,27.20
2023-04-16T11:32:45.973Z,30.85
2023-04-16T11:35:19.110Z,26.70
2023-04-16T11:37:46.491Z,26.05
2023-04-16T11:40:13.048Z,27.05
2023-04-16T11:42:40.812Z,31.08
2023-04-16T11:45:11.891Z,27.48
2023-04-16T11:47:46.975Z,38.53
2023-04-16T11:50:22.309Z,28.40
2023-04-16T11:52:49.929Z,25.42
2023-04-16T11:55:16.619Z,25.02
2023-04-16T11:57:43.097Z,26.70
2023-04-16T12:00:14.162Z,27.70
2023-04-16T12:02:51.577Z,29.60
2023-04-16T12:05:41.557Z,25.95
2023-04-16T12:08:10.503Z,23.02
2023-04-16T12:10:38.560Z,25.48
2023-04-16T12:13:16.277Z,23.65
2023-04-16T12:15:50.190Z,20.77
2023-04-16T12:18:17.336Z,18.23
2023-04-16T12:20:44.606Z,19.77
2023-04-16T12:23:21.995Z,18.55
2023-04-16T12:25:49.970Z,20.42
2023-04-16T12:28:29.858Z,19.73
2023-04-16T12:30:56.484Z,24.27
2023-04-16T12:33:22.950Z,25.67
2023-04-16T12:35:49.633Z,22.70
2023-04-16T12:38:16.816Z,25.80
2023-04-16T12:40:43.260Z,28.00
2023-04-16T12:43:10.440Z,23.10
2023-04-16T12:45:37.927Z,23.80
2023-04-16T12:48:04.374Z,24.83
2023-04-16T12:50:30.923Z,27.17
2023-04-16T12:52:57.698Z,24.17
2023-04-16T12:55:24.486Z,24.23
2023-04-16T12:57:52.638Z,26.48
2023-04-16T13:00:19.971Z,24.40
2023-04-16T13:02:46.818Z,28.05
2023-04-16T13:05:16.409Z,23.98
2023-04-16T13:07:43.066Z,30.02
2023-04-16T13:10:09.988Z,26.80
2023-04-16T13:12:36.534Z,24.23
2023-04-16T13:15:03.037Z,25.55
2023-04-16T13:17:29.504Z,23.90
2023-04-16T13:19:55.967Z,26.05
2023-04-16T13:22:22.540Z,21.85
2023-04-16T13:24:48.951Z,24.02
2023-04-16T13:27:16.803Z,21.10
2023-04-16T13:29:43.202Z,23.60
2023-04-16T13:32:09.659Z,23.95
2023-04-16T13:34:36.056Z,17.90
2023-04-16T13:37:02.461Z,16.17
2023-04-16T13:39:28.868Z,19.38
2023-04-16T13:41:55.297Z,19.08
2023-04-16T13:44:21.773Z,20.33
2023-04-16T13:46:48.212Z,18.20
2023-04-16T13:49:14.887Z,21.83
2023-04-16T13:51:44.597Z,17.77
2023-04-16T13:54:12.027Z,18.13
2023-04-16T13:56:38.659Z,19.75
2023-04-16T13:59:05.095Z,18.52
2023-04-16T14:01:31.465Z,25.45
2023-04-16T14:03:59.274Z,23.70
2023-04-16T14:06:25.878Z,22.42
2023-04-16T14:08:52.268Z,26.25
2023-04-16T14:11:18.702Z,24.00
2023-04-16T14:13:45.073Z,22.30
2023-04-16T14:16:11.666Z,23.08
2023-04-16T14:18:42.109Z,22.42
2023-04-16T14:21:08.896Z,21.75
2023-04-16T14:23:35.416Z,21.27
2023-04-16T14:26:01.870Z,22.42
2023-04-16T14:28:28.261Z,23.73
2023-04-16T14:30:54.635Z,24.50
2023-04-16T14:33:21.210Z,21.00
2023-04-16T14:35:50.169Z,22.48
2023-04-16T14:38:16.533Z,24.23
2023-04-16T14:40:42.904Z,22.60
2023-04-16T14:43:09.270Z,26.10
2023-04-16T14:45:38.906Z,21.80
2023-04-16T14:48:06.152Z,23.33
2023-04-16T14:50:37.842Z,24.85
2023-04-16T14:53:05.054Z,18.63
2023-04-16T14:55:32.045Z,19.25
2023-04-16T14:57:59.523Z,21.08
2023-04-16T15:00:26.130Z,23.58
2023-04-16T15:02:53.279Z,24.05
2023-04-16T15:05:19.773Z,26.05
2023-04-16T15:07:46.392Z,26.05
2023-04-16T15:10:13.032Z,22.90
2023-04-16T15:12:39.592Z,23.08
2023-04-16T15:15:07.248Z,29.73
2023-04-16T15:17:33.723Z,31.38
2023-04-16T15:20:00.591Z,28.83
2023-04-16T15:22:27.330Z,25.33
2023-04-16T15:24:54.091Z,21.48
2023-04-16T15:27:20.615Z,25.38
2023-04-16T15:29:49.225Z,24.80
2023-04-16T15:32:15.698Z,23.08
2023-04-16T15:34:42.121Z,25.00
2023-04-16T15:37:09.566Z,24.08
2023-04-16T15:39:35.955Z,30.58
2023-04-16T15:42:06.604Z,17.65
2023-04-16T15:44:34.147Z,22.77
2023-04-16T15:47:00.809Z,19.00
2023-04-16T15:49:27.253Z,17.48
2023-04-16T15:51:53.796Z,18.25
2023-04-16T15:54:20.296Z,19.50
2023-04-16T15:56:46.919Z,21.65
2023-04-16T15:59:13.517Z,21.23
2023-04-16T16:01:40.178Z,20.80
2023-04-16T16:04:07.944Z,20.42
2023-04-16T16:06:34.554Z,17.75
2023-04-16T16:09:01.640Z,19.65
2023-04-16T16:11:28.098Z,20.38
2023-04-16T16:13:54.727Z,21.05
2023-04-16T16:16:21.818Z,23.08
2023-04-16T16:18:48.642Z,20.50
2023-04-16T16:21:15.034Z,20.17
2023-04-16T16:23:41.412Z,18.60
2023-04-16T16:26:07.812Z,18.30
2023-04-16T16:28:37.517Z,18.38
2023-04-16T16:31:07.289Z,20.08
2023-04-16T16:33:33.724Z,17.05
2023-04-16T16:36:00.151Z,17.25
2023-04-16T16:38:26.985Z,18.00
2023-04-16T16:40:53.377Z,18.90
2023-04-16T16:43:20.222Z,19.23
2023-04-16T16:45:47.172Z,18.83
2023-04-16T16:48:13.579Z,17.92
2023-04-16T16:50:40.276Z,20.52
2023-04-16T16:53:06.713Z,16.58
2023-04-16T16:55:33.192Z,24.80
2023-04-16T16:57:59.696Z,20.10
2023-04-16T17:00:26.141Z,19.88
2023-04-16T17:02:52.871Z,18.77
2023-04-16T17:05:19.782Z,17.48
2023-04-16T17:07:46.254Z,18.20
2023-04-16T17:10:15.828Z,17.38
2023-04-16T17:12:42.239Z,18.67
2023-04-16T17:15:09.186Z,17.65
2023-04-16T17:17:35.810Z,17.40
2023-04-16T17:20:08.047Z,18.55
2023-04-16T17:22:34.496Z,16.73
2023-04-16T17:25:00.969Z,19.95
2023-04-16T17:27:29.256Z,17.45
2023-04-16T17:29:59.950Z,17.58
2023-04-16T17:32:26.666Z,18.52
2023-04-16T17:34:55.369Z,18.70
2023-04-16T17:37:22.719Z,19.67
2023-04-16T17:39:49.427Z,17.45
2023-04-16T17:42:15.871Z,20.50
2023-04-16T17:44:42.309Z,19.08
2023-04-16T17:47:08.704Z,19.25
2023-04-16T17:49:35.119Z,20.80
2023-04-16T17:52:01.518Z,20.08
2023-04-16T17:54:27.991Z,20.73
2023-04-16T17:56:54.407Z,18.83
2023-04-16T17:59:20.799Z,18.65
2023-04-16T18:01:49.367Z,21.98
2023-04-16T18:04:16.381Z,19.50
2023-04-16T18:06:43.156Z,21.65
2023-04-16T18:09:09.534Z,20.75
2023-04-16T18:11:36.172Z,21.15
2023-04-16T18:14:02.552Z,22.00
2023-04-16T18:16:28.983Z,27.27
2023-04-16T18:18:55.391Z,20.73
2023-04-16T18:21:21.985Z,21.80
2023-04-16T18:23:48.364Z,20.40
2023-04-16T18:26:18.368Z,21.98
2023-04-16T18:28:47.184Z,22.60
2023-04-16T18:31:13.797Z,19.50
2023-04-16T18:33:55.528Z,19.42
2023-04-16T18:36:23.511Z,21.73
2023-04-16T18:39:00.071Z,20.80
2023-04-16T18:41:28.432Z,23.08
2023-04-16T18:43:54.901Z,22.05
2023-04-16T18:46:21.382Z,21.30
2023-04-16T18:48:47.788Z,21.10
2023-04-16T18:51:16.101Z,24.15
2023-04-16T18:53:44.168Z,22.83
2023-04-16T18:56:11.036Z,21.48
2023-04-16T18:58:37.865Z,27.95
2023-04-16T19:01:04.857Z,20.45
2023-04-16T19:03:32.207Z,20.23
2023-04-16T19:05:58.747Z,20.77
2023-04-16T19:08:25.249Z,23.42
2023-04-16T19:10:51.702Z,19.75
2023-04-16T19:13:18.078Z,23.73
2023-04-16T19:15:44.478Z,22.98
2023-04-16T19:18:10.832Z,23.85
2023-04-16T19:20:37.536Z,26.35
2023-04-16T19:23:09.173Z,25.70
2023-04-16T19:25:39.002Z,31.90
2023-04-16T19:28:05.517Z,31.58
2023-04-16T19:30:31.966Z,36.42
2023-04-16T19:32:58.386Z,33.85
2023-04-16T19:35:25.359Z,29.45
2023-04-16T19:37:51.735Z,30.27
2023-04-16T19:40:18.135Z,34.38
2023-04-16T19:42:45.293Z,36.80
2023-04-16T19:45:11.851Z,32.40
2023-04-16T19:47:38.344Z,41.03
2023-04-16T19:50:05.087Z,43.47
2023-04-16T19:52:37.153Z,49.20
2023-04-16T19:55:03.687Z,46.90
2023-04-16T19:57:30.063Z,38.67
2023-04-16T19:59:57.017Z,40.50
2023-04-16T20:02:23.575Z,39.47
2023-04-16T20:04:50.706Z,45.25
2023-04-16T20:07:17.418Z,40.38
2023-04-16T20:09:43.828Z,48.05
2023-04-16T20:12:10.373Z,43.35
2023-04-16T20:14:36.840Z,44.25
2023-04-16T20:17:03.472Z,46.75
2023-04-16T20:19:33.273Z,46.85
2023-04-16T20:21:59.637Z,50.20
2023-04-16T20:24:26.486Z,45.45
2023-04-16T20:26:52.866Z,35.55
2023-04-16T20:29:19.328Z,41.75
2023-04-16T20:31:46.088Z,43.63
2023-04-16T20:34:12.835Z,43.03
2023-04-16T20:36:39.253Z,45.95
2023-04-16T20:39:07.253Z,40.88
2023-04-16T20:41:33.989Z,40.90
2023-04-16T20:44:05.292Z,43.83
2023-04-16T20:46:34.180Z,41.10
2023-04-16T20:49:03.267Z,45.55
2023-04-16T20:51:29.675Z,44.75
2023-04-16T20:53:56.235Z,39.72
2023-04-16T20:56:22.634Z,43.05
2023-04-16T20:58:49.032Z,44.13
2023-04-16T21:01:16.268Z,49.25
2023-04-16T21:03:42.941Z,45.58
2023-04-16T21:06:09.428Z,41.67
2023-04-16T21:08:35.795Z,46.45
2023-04-16T21:11:02.199Z,40.35
2023-04-16T21:13:28.576Z,44.20
2023-04-16T21:15:55.044Z,41.05
2023-04-16T21:18:21.525Z,44.03
2023-04-16T21:20:47.940Z,43.38
2023-04-16T21:23:14.349Z,42.38
2023-04-16T21:25:40.955Z,44.58
2023-04-16T21:28:07.354Z,44.65
2023-04-16T21:30:33.730Z,41.92
2023-04-16T21:33:00.282Z,53.45
2023-04-16T21:35:26.696Z,49.80
2023-04-16T21:37:53.144Z,56.05
2023-04-16T21:40:19.592Z,57.92
2023-04-16T21:42:45.965Z,53.38
2023-04-16T21:45:14.361Z,53.08
2023-04-16T21:47:40.792Z,51.03
2023-04-16T21:50:07.805Z,53.90
2023-04-16T21:52:40.025Z,56.63
2023-04-16T21:57:34.385Z,57.22
2023-04-16T22:00:00.868Z,48.75
2023-04-16T22:02:27.451Z,56.00
2023-04-16T22:04:54.075Z,50.05
2023-04-16T22:07:20.626Z,58.28
2023-04-16T22:09:47.074Z,56.30
2023-04-16T22:12:13.799Z,55.55
2023-04-16T22:14:46.300Z,52.25
2023-04-16T22:17:22.141Z,53.65
2023-04-16T22:19:49.241Z,52.78
2023-04-16T22:22:15.684Z,53.20
2023-04-16T22:24:42.312Z,59.90
2023-04-16T22:27:08.730Z,56.13
2023-04-16T22:29:35.255Z,52.58
2023-04-16T22:32:01.963Z,52.28
2023-04-16T22:34:28.383Z,50.67
2023-04-16T22:36:54.772Z,50.78
2023-04-16T22:39:21.401Z,47.45
2023-04-16T22:41:47.794Z,43.90
2023-04-16T22:44:14.192Z,44.67
2023-04-16T22:46:40.762Z,52.40
2023-04-16T22:49:07.147Z,46.78
2023-04-16T22:51:34.092Z,49.75
2023-04-16T22:54:00.542Z,49.67
2023-04-16T22:56:28.808Z,57.35
2023-04-16T22:58:55.395Z,51.60
2023-04-16T23:01:21.844Z,53.08
2023-04-16T23:03:48.392Z,45.90
2023-04-16T23:06:14.878Z,52.42
2023-04-16T23:08:41.262Z,51.85
2023-04-16T23:11:07.684Z,48.67
2023-04-16T23:13:34.046Z,52.28
2023-04-16T23:16:00.523Z,51.25
2023-04-16T23:18:27.034Z,56.53
2023-04-16T23:20:53.514Z,54.70
2023-04-16T23:23:19.961Z,57.65
2023-04-16T23:25:46.348Z,52.30
2023-04-16T23:28:12.733Z,60.38
2023-04-16T23:30:39.194Z,57.95
2023-04-16T23:33:05.608Z,60.40
2023-04-16T23:35:32.096Z,61.28
2023-04-16T23:37:58.557Z,60.85
2023-04-16T23:40:24.925Z,55.92
2023-04-16T23:42:51.288Z,55.58
2023-04-16T23:45:17.768Z,57.92
2023-04-16T23:47:44.641Z,60.17
2023-04-16T23:50:11.336Z,56.75
2023-04-16T23:52:37.712Z,62.80
2023-04-16T23:55:04.367Z,57.88
2023-04-16T23:57:30.887Z,56.35
2023-04-16T23:59:57.282Z,54.90
